sensor_id;sensor_type;location;lat;lon;timestamp;P1;durP1;ratioP1;P2;durP2;ratioP2
37785;SDS011;23625;48.784;9.336;2023-04-15T00:01:21;9.65;;;2.25;;
37785;SDS011;23625;48.784;9.336;2023-04-15T00:03:49;9.93;;;2.17;;
37785;SDS011;23625;48.784;9.336;2023-04-15T00:06:19;5.10;;;2.05;;
37785;SDS011;23625;48.784;9.336;2023-04-15T00:08:47;5.10;;;2.40;;
37785;SDS011;23625;48.784;9.336;2023-04-15T00:11:14;6.05;;;2.10;;
37785;SDS011;23625;48.784;9.336;2023-04-15T00:13:41;5.03;;;2.17;;
37785;SDS011;23625;48.784;9.336;2023-04-15T00:16:07;3.22;;;2.22;;
37785;SDS011;23625;48.784;9.336;2023-04-15T00:18:34;5.90;;;2.08;;
37785;SDS011;23625;48.784;9.336;2023-04-15T00:21:00;5.10;;;2.10;;
37785;SDS011;23625;48.784;9.336;2023-04-15T00:23:26;4.75;;;2.28;;
37785;SDS011;23625;48.784;9.336;2023-04-15T00:25:52;7.10;;;2.08;;
37785;SDS011;23625;48.784;9.336;2023-04-15T00:28:17;4.88;;;2.10;;
37785;SDS011;23625;48.784;9.336;2023-04-15T00:30:43;8.00;;;2.33;;
37785;SDS011;23625;48.784;9.336;2023-04-15T00:33:09;8.85;;;2.50;;
37785;SDS011;23625;48.784;9.336;2023-04-15T00:35:35;5.38;;;1.95;;
37785;SDS011;23625;48.784;9.336;2023-04-15T00:38:01;10.68;;;3.10;;
37785;SDS011;23625;48.784;9.336;2023-04-15T00:40:28;6.85;;;2.10;;
37785;SDS011;23625;48.784;9.336;2023-04-15T00:42:54;6.32;;;2.53;;
37785;SDS011;23625;48.784;9.336;2023-04-15T00:45:20;6.07;;;1.88;;
37785;SDS011;23625;48.784;9.336;2023-04-15T00:47:45;7.97;;;2.47;;
37785;SDS011;23625;48.784;9.336;2023-04-15T00:50:11;7.45;;;2.42;;
37785;SDS011;23625;48.784;9.336;2023-04-15T00:52:38;4.18;;;2.28;;
37785;SDS011;23625;48.784;9.336;2023-04-15T00:55:04;5.90;;;2.95;;
37785;SDS011;23625;48.784;9.336;2023-04-15T00:57:31;4.18;;;2.13;;
37785;SDS011;23625;48.784;9.336;2023-04-15T00:59:57;11.50;;;2.40;;
37785;SDS011;23625;48.784;9.336;2023-04-15T01:02:24;8.43;;;2.05;;
37785;SDS011;23625;48.784;9.336;2023-04-15T01:04:49;4.60;;;1.80;;
37785;SDS011;23625;48.784;9.336;2023-04-15T01:07:15;4.68;;;2.38;;
37785;SDS011;23625;48.784;9.336;2023-04-15T01:09:41;2.83;;;2.30;;
37785;SDS011;23625;48.784;9.336;2023-04-15T01:12:08;7.82;;;2.33;;
37785;SDS011;23625;48.784;9.336;2023-04-15T01:14:35;5.88;;;2.67;;
37785;SDS011;23625;48.784;9.336;2023-04-15T01:17:01;12.90;;;2.78;;
37785;SDS011;23625;48.784;9.336;2023-04-15T01:19:27;8.15;;;2.92;;
37785;SDS011;23625;48.784;9.336;2023-04-15T01:21:53;6.57;;;1.83;;
37785;SDS011;23625;48.784;9.336;2023-04-15T01:24:19;5.43;;;2.55;;
37785;SDS011;23625;48.784;9.336;2023-04-15T01:26:45;7.00;;;2.63;;
37785;SDS011;23625;48.784;9.336;2023-04-15T01:29:11;7.68;;;2.50;;
37785;SDS011;23625;48.784;9.336;2023-04-15T01:31:37;7.78;;;2.75;;
37785;SDS011;23625;48.784;9.336;2023-04-15T01:34:02;7.65;;;2.65;;
37785;SDS011;23625;48.784;9.336;2023-04-15T01:36:28;7.47;;;2.78;;
37785;SDS011;23625;48.784;9.336;2023-04-15T01:38:54;11.02;;;2.80;;
37785;SDS011;23625;48.784;9.336;2023-04-15T01:41:24;8.02;;;3.10;;
37785;SDS011;23625;48.784;9.336;2023-04-15T01:43:50;9.90;;;2.40;;
37785;SDS011;23625;48.784;9.336;2023-04-15T01:46:16;11.65;;;3.05;;
37785;SDS011;23625;48.784;9.336;2023-04-15T01:48:42;10.43;;;2.65;;
37785;SDS011;23625;48.784;9.336;2023-04-15T01:51:07;5.15;;;2.47;;
37785;SDS011;23625;48.784;9.336;2023-04-15T01:53:33;9.88;;;2.67;;
37785;SDS011;23625;48.784;9.336;2023-04-15T01:55:58;8.77;;;3.00;;
37785;SDS011;23625;48.784;9.336;2023-04-15T01:58:24;14.05;;;3.13;;
37785;SDS011;23625;48.784;9.336;2023-04-15T02:00:51;7.18;;;3.75;;
37785;SDS011;23625;48.784;9.336;2023-04-15T02:03:16;12.23;;;3.28;;
37785;SDS011;23625;48.784;9.336;2023-04-15T02:05:42;5.43;;;2.53;;
37785;SDS011;23625;48.784;9.336;2023-04-15T02:08:08;9.15;;;2.85;;
37785;SDS011;23625;48.784;9.336;2023-04-15T02:10:33;16.15;;;4.05;;
37785;SDS011;23625;48.784;9.336;2023-04-15T02:12:59;9.48;;;4.00;;
37785;SDS011;23625;48.784;9.336;2023-04-15T02:15:25;7.15;;;3.08;;
37785;SDS011;23625;48.784;9.336;2023-04-15T02:17:51;6.82;;;2.90;;
37785;SDS011;23625;48.784;9.336;2023-04-15T02:20:19;8.25;;;2.83;;
37785;SDS011;23625;48.784;9.336;2023-04-15T02:22:46;6.63;;;3.33;;
37785;SDS011;23625;48.784;9.336;2023-04-15T02:25:12;9.88;;;3.00;;
37785;SDS011;23625;48.784;9.336;2023-04-15T02:27:38;5.93;;;2.60;;
37785;SDS011;23625;48.784;9.336;2023-04-15T02:30:04;12.13;;;3.22;;
37785;SDS011;23625;48.784;9.336;2023-04-15T02:32:31;10.18;;;3.60;;
37785;SDS011;23625;48.784;9.336;2023-04-15T02:35:00;6.22;;;3.45;;
37785;SDS011;23625;48.784;9.336;2023-04-15T02:37:27;8.27;;;3.50;;
37785;SDS011;23625;48.784;9.336;2023-04-15T02:39:54;8.25;;;3.25;;
37785;SDS011;23625;48.784;9.336;2023-04-15T02:42:20;6.57;;;3.20;;
37785;SDS011;23625;48.784;9.336;2023-04-15T02:44:46;8.93;;;3.20;;
37785;SDS011;23625;48.784;9.336;2023-04-15T02:47:11;11.57;;;3.67;;
37785;SDS011;23625;48.784;9.336;2023-04-15T02:49:38;8.18;;;3.78;;
37785;SDS011;23625;48.784;9.336;2023-04-15T02:52:04;9.35;;;3.00;;
37785;SDS011;23625;48.784;9.336;2023-04-15T02:54:30;4.28;;;2.95;;
37785;SDS011;23625;48.784;9.336;2023-04-15T02:56:57;8.38;;;3.17;;
37785;SDS011;23625;48.784;9.336;2023-04-15T02:59:23;12.15;;;3.85;;
37785;SDS011;23625;48.784;9.336;2023-04-15T03:01:49;9.50;;;3.85;;
37785;SDS011;23625;48.784;9.336;2023-04-15T03:04:15;8.00;;;2.67;;
37785;SDS011;23625;48.784;9.336;2023-04-15T03:06:41;7.15;;;3.13;;
37785;SDS011;23625;48.784;9.336;2023-04-15T03:09:06;9.00;;;3.10;;
37785;SDS011;23625;48.784;9.336;2023-04-15T03:11:32;7.78;;;3.55;;
37785;SDS011;23625;48.784;9.336;2023-04-15T03:13:58;7.30;;;4.22;;
37785;SDS011;23625;48.784;9.336;2023-04-15T03:16:23;12.55;;;3.88;;
37785;SDS011;23625;48.784;9.336;2023-04-15T03:18:49;7.80;;;4.50;;
37785;SDS011;23625;48.784;9.336;2023-04-15T03:21:15;13.07;;;4.53;;
37785;SDS011;23625;48.784;9.336;2023-04-15T03:23:44;17.73;;;5.72;;
37785;SDS011;23625;48.784;9.336;2023-04-15T03:26:10;14.20;;;4.95;;
37785;SDS011;23625;48.784;9.336;2023-04-15T03:28:51;17.23;;;4.97;;
37785;SDS011;23625;48.784;9.336;2023-04-15T03:31:17;17.55;;;4.30;;
37785;SDS011;23625;48.784;9.336;2023-04-15T03:33:42;7.85;;;3.33;;
37785;SDS011;23625;48.784;9.336;2023-04-15T03:36:08;13.30;;;3.97;;
37785;SDS011;23625;48.784;9.336;2023-04-15T03:38:33;8.65;;;3.70;;
37785;SDS011;23625;48.784;9.336;2023-04-15T03:40:59;10.18;;;3.55;;
37785;SDS011;23625;48.784;9.336;2023-04-15T03:43:25;9.82;;;4.10;;
37785;SDS011;23625;48.784;9.336;2023-04-15T03:45:50;10.73;;;3.83;;
37785;SDS011;23625;48.784;9.336;2023-04-15T03:48:16;10.38;;;4.63;;
37785;SDS011;23625;48.784;9.336;2023-04-15T03:50:41;16.83;;;5.05;;
37785;SDS011;23625;48.784;9.336;2023-04-15T03:53:07;15.00;;;5.72;;
37785;SDS011;23625;48.784;9.336;2023-04-15T03:55:32;17.90;;;6.53;;
37785;SDS011;23625;48.784;9.336;2023-04-15T03:57:58;20.40;;;5.78;;
37785;SDS011;23625;48.784;9.336;2023-04-15T04:00:23;18.10;;;5.88;;
37785;SDS011;23625;48.784;9.336;2023-04-15T04:02:49;17.15;;;5.95;;
37785;SDS011;23625;48.784;9.336;2023-04-15T04:05:15;17.27;;;5.95;;
37785;SDS011;23625;48.784;9.336;2023-04-15T04:07:40;17.92;;;6.13;;
37785;SDS011;23625;48.784;9.336;2023-04-15T04:10:06;15.30;;;5.90;;
37785;SDS011;23625;48.784;9.336;2023-04-15T04:12:32;11.95;;;5.20;;
37785;SDS011;23625;48.784;9.336;2023-04-15T04:14:58;17.63;;;6.22;;
37785;SDS011;23625;48.784;9.336;2023-04-15T04:17:23;19.73;;;5.88;;
37785;SDS011;23625;48.784;9.336;2023-04-15T04:19:49;17.08;;;6.35;;
37785;SDS011;23625;48.784;9.336;2023-04-15T04:22:15;16.38;;;6.15;;
37785;SDS011;23625;48.784;9.336;2023-04-15T04:24:40;20.75;;;7.18;;
37785;SDS011;23625;48.784;9.336;2023-04-15T04:27:06;19.52;;;7.50;;
37785;SDS011;23625;48.784;9.336;2023-04-15T04:29:31;18.48;;;7.40;;
37785;SDS011;23625;48.784;9.336;2023-04-15T04:31:57;18.08;;;7.43;;
37785;SDS011;23625;48.784;9.336;2023-04-15T04:34:22;18.25;;;6.93;;
37785;SDS011;23625;48.784;9.336;2023-04-15T04:36:48;17.55;;;7.93;;
37785;SDS011;23625;48.784;9.336;2023-04-15T04:39:14;21.35;;;7.53;;
37785;SDS011;23625;48.784;9.336;2023-04-15T04:41:39;18.60;;;6.88;;
37785;SDS011;23625;48.784;9.336;2023-04-15T04:44:05;20.60;;;6.25;;
37785;SDS011;23625;48.784;9.336;2023-04-15T04:46:31;17.30;;;7.10;;
37785;SDS011;23625;48.784;9.336;2023-04-15T04:48:57;13.30;;;6.30;;
37785;SDS011;23625;48.784;9.336;2023-04-15T04:51:22;20.05;;;7.00;;
37785;SDS011;23625;48.784;9.336;2023-04-15T04:53:48;17.10;;;6.10;;
37785;SDS011;23625;48.784;9.336;2023-04-15T04:56:14;17.13;;;6.28;;
37785;SDS011;23625;48.784;9.336;2023-04-15T04:58:39;15.48;;;6.63;;
37785;SDS011;23625;48.784;9.336;2023-04-15T05:01:05;18.63;;;7.80;;
37785;SDS011;23625;48.784;9.336;2023-04-15T05:03:31;19.63;;;6.38;;
37785;SDS011;23625;48.784;9.336;2023-04-15T05:05:56;14.93;;;5.63;;
37785;SDS011;23625;48.784;9.336;2023-04-15T05:08:22;16.55;;;5.82;;
37785;SDS011;23625;48.784;9.336;2023-04-15T05:10:47;20.02;;;6.47;;
37785;SDS011;23625;48.784;9.336;2023-04-15T05:13:13;13.40;;;6.10;;
37785;SDS011;23625;48.784;9.336;2023-04-15T05:15:39;20.85;;;6.55;;
37785;SDS011;23625;48.784;9.336;2023-04-15T05:18:05;17.88;;;5.60;;
37785;SDS011;23625;48.784;9.336;2023-04-15T05:20:31;21.58;;;5.43;;
37785;SDS011;23625;48.784;9.336;2023-04-15T05:22:56;15.05;;;5.15;;
37785;SDS011;23625;48.784;9.336;2023-04-15T05:25:22;15.57;;;5.45;;
37785;SDS011;23625;48.784;9.336;2023-04-15T05:27:47;10.90;;;5.10;;
37785;SDS011;23625;48.784;9.336;2023-04-15T05:30:13;13.18;;;5.13;;
37785;SDS011;23625;48.784;9.336;2023-04-15T05:32:39;12.38;;;4.85;;
37785;SDS011;23625;48.784;9.336;2023-04-15T05:35:05;14.82;;;5.07;;
37785;SDS011;23625;48.784;9.336;2023-04-15T05:37:32;11.65;;;4.55;;
37785;SDS011;23625;48.784;9.336;2023-04-15T05:39:57;12.77;;;4.82;;
37785;SDS011;23625;48.784;9.336;2023-04-15T05:42:23;14.18;;;6.18;;
37785;SDS011;23625;48.784;9.336;2023-04-15T05:44:48;12.68;;;4.75;;
37785;SDS011;23625;48.784;9.336;2023-04-15T05:47:14;13.48;;;5.15;;
37785;SDS011;23625;48.784;9.336;2023-04-15T05:49:39;16.33;;;4.90;;
37785;SDS011;23625;48.784;9.336;2023-04-15T05:52:05;15.18;;;5.55;;
37785;SDS011;23625;48.784;9.336;2023-04-15T05:54:31;22.40;;;5.68;;
37785;SDS011;23625;48.784;9.336;2023-04-15T05:56:56;12.13;;;4.85;;
37785;SDS011;23625;48.784;9.336;2023-04-15T05:59:22;20.67;;;5.03;;
37785;SDS011;23625;48.784;9.336;2023-04-15T06:01:48;11.25;;;4.25;;
37785;SDS011;23625;48.784;9.336;2023-04-15T06:04:14;10.68;;;4.43;;
37785;SDS011;23625;48.784;9.336;2023-04-15T06:06:39;11.52;;;4.47;;
37785;SDS011;23625;48.784;9.336;2023-04-15T06:09:05;10.85;;;4.28;;
37785;SDS011;23625;48.784;9.336;2023-04-15T06:11:31;19.20;;;4.78;;
37785;SDS011;23625;48.784;9.336;2023-04-15T06:13:57;12.43;;;4.60;;
37785;SDS011;23625;48.784;9.336;2023-04-15T06:16:22;9.85;;;3.83;;
37785;SDS011;23625;48.784;9.336;2023-04-15T06:18:48;11.40;;;4.53;;
37785;SDS011;23625;48.784;9.336;2023-04-15T06:21:14;11.07;;;4.20;;
37785;SDS011;23625;48.784;9.336;2023-04-15T06:23:40;10.18;;;4.13;;
37785;SDS011;23625;48.784;9.336;2023-04-15T06:26:06;13.60;;;4.43;;
37785;SDS011;23625;48.784;9.336;2023-04-15T06:28:32;11.70;;;4.43;;
37785;SDS011;23625;48.784;9.336;2023-04-15T06:30:58;14.63;;;5.10;;
37785;SDS011;23625;48.784;9.336;2023-04-15T06:33:25;14.65;;;4.57;;
37785;SDS011;23625;48.784;9.336;2023-04-15T06:35:51;11.70;;;3.92;;
37785;SDS011;23625;48.784;9.336;2023-04-15T06:38:16;17.50;;;4.30;;
37785;SDS011;23625;48.784;9.336;2023-04-15T06:40:42;7.35;;;3.85;;
37785;SDS011;23625;48.784;9.336;2023-04-15T06:43:07;12.65;;;4.07;;
37785;SDS011;23625;48.784;9.336;2023-04-15T06:45:33;37.85;;;13.60;;
37785;SDS011;23625;48.784;9.336;2023-04-15T06:47:58;19.05;;;5.97;;
37785;SDS011;23625;48.784;9.336;2023-04-15T06:50:24;27.35;;;7.75;;
37785;SDS011;23625;48.784;9.336;2023-04-15T06:52:51;21.08;;;6.63;;
37785;SDS011;23625;48.784;9.336;2023-04-15T06:55:17;17.17;;;6.82;;
37785;SDS011;23625;48.784;9.336;2023-04-15T06:57:43;16.77;;;6.40;;
37785;SDS011;23625;48.784;9.336;2023-04-15T07:00:11;16.27;;;6.80;;
37785;SDS011;23625;48.784;9.336;2023-04-15T07:02:37;15.38;;;6.05;;
37785;SDS011;23625;48.784;9.336;2023-04-15T07:05:03;20.50;;;7.70;;
37785;SDS011;23625;48.784;9.336;2023-04-15T07:07:30;14.70;;;6.75;;
37785;SDS011;23625;48.784;9.336;2023-04-15T07:09:56;13.88;;;6.15;;
37785;SDS011;23625;48.784;9.336;2023-04-15T07:12:22;17.27;;;6.80;;
37785;SDS011;23625;48.784;9.336;2023-04-15T07:14:47;16.83;;;6.47;;
37785;SDS011;23625;48.784;9.336;2023-04-15T07:17:13;16.23;;;6.50;;
37785;SDS011;23625;48.784;9.336;2023-04-15T07:19:39;17.58;;;6.60;;
37785;SDS011;23625;48.784;9.336;2023-04-15T07:22:04;23.50;;;8.60;;
37785;SDS011;23625;48.784;9.336;2023-04-15T07:24:30;16.67;;;8.15;;
37785;SDS011;23625;48.784;9.336;2023-04-15T07:26:56;24.88;;;10.10;;
37785;SDS011;23625;48.784;9.336;2023-04-15T07:29:22;20.63;;;9.75;;
37785;SDS011;23625;48.784;9.336;2023-04-15T07:31:48;17.17;;;8.05;;
37785;SDS011;23625;48.784;9.336;2023-04-15T07:34:13;15.88;;;6.60;;
37785;SDS011;23625;48.784;9.336;2023-04-15T07:36:39;15.32;;;6.63;;
37785;SDS011;23625;48.784;9.336;2023-04-15T07:39:05;17.33;;;6.75;;
37785;SDS011;23625;48.784;9.336;2023-04-15T07:41:30;12.35;;;5.80;;
37785;SDS011;23625;48.784;9.336;2023-04-15T07:43:56;15.68;;;6.15;;
37785;SDS011;23625;48.784;9.336;2023-04-15T07:46:21;13.18;;;5.65;;
37785;SDS011;23625;48.784;9.336;2023-04-15T07:48:48;13.70;;;5.90;;
37785;SDS011;23625;48.784;9.336;2023-04-15T07:51:14;10.13;;;5.28;;
37785;SDS011;23625;48.784;9.336;2023-04-15T07:53:41;15.75;;;5.60;;
37785;SDS011;23625;48.784;9.336;2023-04-15T07:56:08;17.35;;;6.72;;
37785;SDS011;23625;48.784;9.336;2023-04-15T07:58:34;15.05;;;5.70;;
37785;SDS011;23625;48.784;9.336;2023-04-15T08:00:59;12.13;;;5.93;;
37785;SDS011;23625;48.784;9.336;2023-04-15T08:03:25;16.25;;;5.18;;
37785;SDS011;23625;48.784;9.336;2023-04-15T08:05:51;13.20;;;5.68;;
37785;SDS011;23625;48.784;9.336;2023-04-15T08:08:17;12.75;;;5.13;;
37785;SDS011;23625;48.784;9.336;2023-04-15T08:10:42;11.50;;;4.45;;
37785;SDS011;23625;48.784;9.336;2023-04-15T08:13:08;12.85;;;5.10;;
37785;SDS011;23625;48.784;9.336;2023-04-15T08:15:33;11.32;;;4.68;;
37785;SDS011;23625;48.784;9.336;2023-04-15T08:17:59;15.13;;;5.07;;
37785;SDS011;23625;48.784;9.336;2023-04-15T08:20:28;11.93;;;5.38;;
37785;SDS011;23625;48.784;9.336;2023-04-15T08:22:54;13.18;;;5.40;;
37785;SDS011;23625;48.784;9.336;2023-04-15T08:25:20;14.25;;;4.85;;
37785;SDS011;23625;48.784;9.336;2023-04-15T08:27:45;9.55;;;4.43;;
37785;SDS011;23625;48.784;9.336;2023-04-15T08:30:11;14.95;;;6.00;;
37785;SDS011;23625;48.784;9.336;2023-04-15T08:32:37;9.93;;;4.22;;
37785;SDS011;23625;48.784;9.336;2023-04-15T08:35:03;9.80;;;4.45;;
37785;SDS011;23625;48.784;9.336;2023-04-15T08:37:29;11.27;;;4.28;;
37785;SDS011;23625;48.784;9.336;2023-04-15T08:39:55;8.00;;;4.20;;
37785;SDS011;23625;48.784;9.336;2023-04-15T08:42:30;12.10;;;4.65;;
37785;SDS011;23625;48.784;9.336;2023-04-15T08:44:58;10.02;;;4.35;;
37785;SDS011;23625;48.784;9.336;2023-04-15T08:47:25;17.27;;;4.15;;
37785;SDS011;23625;48.784;9.336;2023-04-15T08:49:55;10.13;;;3.75;;
37785;SDS011;23625;48.784;9.336;2023-04-15T08:52:23;15.73;;;4.10;;
37785;SDS011;23625;48.784;9.336;2023-04-15T08:54:50;15.43;;;4.68;;
37785;SDS011;23625;48.784;9.336;2023-04-15T08:57:20;10.32;;;3.65;;
37785;SDS011;23625;48.784;9.336;2023-04-15T08:59:48;9.68;;;3.67;;
37785;SDS011;23625;48.784;9.336;2023-04-15T09:02:14;10.70;;;4.35;;
37785;SDS011;23625;48.784;9.336;2023-04-15T09:04:40;5.85;;;3.30;;
37785;SDS011;23625;48.784;9.336;2023-04-15T09:07:06;7.70;;;3.67;;
37785;SDS011;23625;48.784;9.336;2023-04-15T09:09:31;11.52;;;3.78;;
37785;SDS011;23625;48.784;9.336;2023-04-15T09:11:57;16.98;;;4.47;;
37785;SDS011;23625;48.784;9.336;2023-04-15T09:14:25;9.43;;;4.18;;
37785;SDS011;23625;48.784;9.336;2023-04-15T09:19:22;11.40;;;3.70;;
37785;SDS011;23625;48.784;9.336;2023-04-15T09:21:49;12.40;;;4.60;;
37785;SDS011;23625;48.784;9.336;2023-04-15T09:24:16;14.55;;;3.92;;
37785;SDS011;23625;48.784;9.336;2023-04-15T09:26:41;10.85;;;4.18;;
37785;SDS011;23625;48.784;9.336;2023-04-15T09:29:10;7.78;;;3.65;;
37785;SDS011;23625;48.784;9.336;2023-04-15T09:31:39;9.30;;;4.53;;
37785;SDS011;23625;48.784;9.336;2023-04-15T09:34:06;6.82;;;3.05;;
37785;SDS011;23625;48.784;9.336;2023-04-15T09:39:16;9.50;;;4.18;;
37785;SDS011;23625;48.784;9.336;2023-04-15T09:41:42;4.20;;;2.60;;
37785;SDS011;23625;48.784;9.336;2023-04-15T09:44:22;5.78;;;3.08;;
37785;SDS011;23625;48.784;9.336;2023-04-15T09:46:51;12.20;;;3.15;;
37785;SDS011;23625;48.784;9.336;2023-04-15T09:49:16;10.05;;;3.28;;
37785;SDS011;23625;48.784;9.336;2023-04-15T09:51:42;8.30;;;3.10;;
37785;SDS011;23625;48.784;9.336;2023-04-15T09:54:08;8.82;;;3.28;;
37785;SDS011;23625;48.784;9.336;2023-04-15T09:56:37;8.93;;;3.30;;
37785;SDS011;23625;48.784;9.336;2023-04-15T09:59:08;6.50;;;3.13;;
37785;SDS011;23625;48.784;9.336;2023-04-15T10:01:34;25.92;;;3.90;;
37785;SDS011;23625;48.784;9.336;2023-04-15T10:04:04;11.63;;;3.50;;
37785;SDS011;23625;48.784;9.336;2023-04-15T10:06:30;9.77;;;3.92;;
37785;SDS011;23625;48.784;9.336;2023-04-15T10:08:59;8.52;;;3.80;;
37785;SDS011;23625;48.784;9.336;2023-04-15T10:11:28;14.35;;;5.55;;
37785;SDS011;23625;48.784;9.336;2023-04-15T10:13:55;9.27;;;4.75;;
37785;SDS011;23625;48.784;9.336;2023-04-15T10:16:23;5.72;;;3.38;;
37785;SDS011;23625;48.784;9.336;2023-04-15T10:18:55;11.48;;;4.75;;
37785;SDS011;23625;48.784;9.336;2023-04-15T10:21:21;15.50;;;5.00;;
37785;SDS011;23625;48.784;9.336;2023-04-15T10:23:47;12.75;;;5.47;;
37785;SDS011;23625;48.784;9.336;2023-04-15T10:26:14;6.85;;;3.25;;
37785;SDS011;23625;48.784;9.336;2023-04-15T10:29:17;6.97;;;3.88;;
37785;SDS011;23625;48.784;9.336;2023-04-15T10:31:44;9.43;;;3.67;;
37785;SDS011;23625;48.784;9.336;2023-04-15T10:34:10;12.60;;;5.57;;
37785;SDS011;23625;48.784;9.336;2023-04-15T10:36:37;16.38;;;4.18;;
37785;SDS011;23625;48.784;9.336;2023-04-15T10:39:06;51.60;;;17.17;;
37785;SDS011;23625;48.784;9.336;2023-04-15T10:42:16;45.60;;;14.75;;
37785;SDS011;23625;48.784;9.336;2023-04-15T10:44:50;15.52;;;7.20;;
37785;SDS011;23625;48.784;9.336;2023-04-15T10:47:20;10.20;;;5.50;;
37785;SDS011;23625;48.784;9.336;2023-04-15T10:49:47;14.32;;;4.28;;
37785;SDS011;23625;48.784;9.336;2023-04-15T10:52:22;6.18;;;2.42;;
37785;SDS011;23625;48.784;9.336;2023-04-15T10:54:49;10.73;;;4.15;;
37785;SDS011;23625;48.784;9.336;2023-04-15T10:57:36;9.30;;;3.30;;
37785;SDS011;23625;48.784;9.336;2023-04-15T11:05:15;8.73;;;3.42;;
37785;SDS011;23625;48.784;9.336;2023-04-15T11:07:49;7.95;;;3.60;;
37785;SDS011;23625;48.784;9.336;2023-04-15T11:12:41;8.38;;;3.75;;
37785;SDS011;23625;48.784;9.336;2023-04-15T11:17:51;9.23;;;3.97;;
37785;SDS011;23625;48.784;9.336;2023-04-15T11:20:17;10.68;;;4.15;;
37785;SDS011;23625;48.784;9.336;2023-04-15T11:22:49;8.90;;;3.72;;
37785;SDS011;23625;48.784;9.336;2023-04-15T11:25:21;17.25;;;8.05;;
37785;SDS011;23625;48.784;9.336;2023-04-15T11:27:47;9.95;;;4.97;;
37785;SDS011;23625;48.784;9.336;2023-04-15T11:30:21;10.55;;;4.38;;
37785;SDS011;23625;48.784;9.336;2023-04-15T11:32:51;11.75;;;4.00;;
37785;SDS011;23625;48.784;9.336;2023-04-15T11:35:19;14.95;;;4.70;;
37785;SDS011;23625;48.784;9.336;2023-04-15T11:37:45;6.63;;;3.63;;
37785;SDS011;23625;48.784;9.336;2023-04-15T11:40:11;10.50;;;4.53;;
37785;SDS011;23625;48.784;9.336;2023-04-15T11:42:37;7.35;;;4.00;;
37785;SDS011;23625;48.784;9.336;2023-04-15T11:45:13;7.22;;;4.03;;
37785;SDS011;23625;48.784;9.336;2023-04-15T11:47:42;8.23;;;4.05;;
37785;SDS011;23625;48.784;9.336;2023-04-15T11:50:15;8.63;;;4.55;;
37785;SDS011;23625;48.784;9.336;2023-04-15T11:55:23;10.35;;;4.75;;
37785;SDS011;23625;48.784;9.336;2023-04-15T11:57:51;5.82;;;3.53;;
37785;SDS011;23625;48.784;9.336;2023-04-15T12:00:32;10.07;;;4.50;;
37785;SDS011;23625;48.784;9.336;2023-04-15T12:03:11;9.60;;;6.30;;
37785;SDS011;23625;48.784;9.336;2023-04-15T12:08:55;13.48;;;4.50;;
37785;SDS011;23625;48.784;9.336;2023-04-15T12:14:20;8.23;;;3.83;;
37785;SDS011;23625;48.784;9.336;2023-04-15T12:16:51;9.35;;;3.03;;
37785;SDS011;23625;48.784;9.336;2023-04-15T12:19:31;6.38;;;2.22;;
37785;SDS011;23625;48.784;9.336;2023-04-15T12:22:00;10.02;;;2.58;;
37785;SDS011;23625;48.784;9.336;2023-04-15T12:24:33;12.10;;;3.40;;
37785;SDS011;23625;48.784;9.336;2023-04-15T12:27:01;6.72;;;2.90;;
37785;SDS011;23625;48.784;9.336;2023-04-15T12:29:32;7.90;;;3.78;;
37785;SDS011;23625;48.784;9.336;2023-04-15T12:32:03;5.07;;;2.95;;
37785;SDS011;23625;48.784;9.336;2023-04-15T12:34:53;11.18;;;3.92;;
37785;SDS011;23625;48.784;9.336;2023-04-15T12:37:19;8.38;;;3.40;;
37785;SDS011;23625;48.784;9.336;2023-04-15T12:39:46;7.22;;;2.63;;
37785;SDS011;23625;48.784;9.336;2023-04-15T12:42:13;9.10;;;3.75;;
37785;SDS011;23625;48.784;9.336;2023-04-15T12:44:39;7.03;;;2.95;;
37785;SDS011;23625;48.784;9.336;2023-04-15T12:47:06;5.65;;;3.20;;
37785;SDS011;23625;48.784;9.336;2023-04-15T12:49:32;6.50;;;4.03;;
37785;SDS011;23625;48.784;9.336;2023-04-15T12:51:59;9.60;;;4.40;;
37785;SDS011;23625;48.784;9.336;2023-04-15T12:54:25;5.18;;;3.13;;
37785;SDS011;23625;48.784;9.336;2023-04-15T12:56:52;6.38;;;3.25;;
37785;SDS011;23625;48.784;9.336;2023-04-15T12:59:18;8.23;;;2.80;;
37785;SDS011;23625;48.784;9.336;2023-04-15T13:01:45;6.05;;;3.00;;
37785;SDS011;23625;48.784;9.336;2023-04-15T13:04:12;7.63;;;2.83;;
37785;SDS011;23625;48.784;9.336;2023-04-15T13:06:38;7.28;;;3.40;;
37785;SDS011;23625;48.784;9.336;2023-04-15T13:09:04;10.07;;;3.92;;
37785;SDS011;23625;48.784;9.336;2023-04-15T13:11:30;13.50;;;7.25;;
37785;SDS011;23625;48.784;9.336;2023-04-15T13:13:57;11.68;;;5.07;;
37785;SDS011;23625;48.784;9.336;2023-04-15T13:16:24;14.98;;;6.00;;
37785;SDS011;23625;48.784;9.336;2023-04-15T13:18:50;7.35;;;3.45;;
37785;SDS011;23625;48.784;9.336;2023-04-15T13:21:15;6.22;;;3.38;;
37785;SDS011;23625;48.784;9.336;2023-04-15T13:23:42;7.35;;;3.15;;
37785;SDS011;23625;48.784;9.336;2023-04-15T13:26:08;9.65;;;4.05;;
37785;SDS011;23625;48.784;9.336;2023-04-15T13:28:33;7.32;;;3.40;;
37785;SDS011;23625;48.784;9.336;2023-04-15T13:30:59;8.40;;;3.40;;
37785;SDS011;23625;48.784;9.336;2023-04-15T13:33:25;6.93;;;3.40;;
37785;SDS011;23625;48.784;9.336;2023-04-15T13:35:51;11.73;;;4.80;;
37785;SDS011;23625;48.784;9.336;2023-04-15T13:38:16;14.40;;;7.03;;
37785;SDS011;23625;48.784;9.336;2023-04-15T13:40:42;6.45;;;2.55;;
37785;SDS011;23625;48.784;9.336;2023-04-15T13:43:08;3.97;;;2.28;;
37785;SDS011;23625;48.784;9.336;2023-04-15T13:45:34;5.63;;;2.35;;
37785;SDS011;23625;48.784;9.336;2023-04-15T13:47:59;5.20;;;2.50;;
37785;SDS011;23625;48.784;9.336;2023-04-15T13:50:26;8.23;;;2.33;;
37785;SDS011;23625;48.784;9.336;2023-04-15T13:52:52;9.65;;;2.40;;
37785;SDS011;23625;48.784;9.336;2023-04-15T13:55:17;6.47;;;1.55;;
37785;SDS011;23625;48.784;9.336;2023-04-15T13:57:43;5.55;;;1.52;;
37785;SDS011;23625;48.784;9.336;2023-04-15T14:00:09;6.85;;;1.35;;
37785;SDS011;23625;48.784;9.336;2023-04-15T14:02:35;5.20;;;2.20;;
37785;SDS011;23625;48.784;9.336;2023-04-15T14:05:01;6.38;;;2.08;;
37785;SDS011;23625;48.784;9.336;2023-04-15T14:07:28;8.45;;;4.65;;
37785;SDS011;23625;48.784;9.336;2023-04-15T14:09:54;3.78;;;1.73;;
37785;SDS011;23625;48.784;9.336;2023-04-15T14:12:20;5.97;;;2.47;;
37785;SDS011;23625;48.784;9.336;2023-04-15T14:14:46;3.78;;;1.23;;
37785;SDS011;23625;48.784;9.336;2023-04-15T14:17:11;3.63;;;1.35;;
37785;SDS011;23625;48.784;9.336;2023-04-15T14:19:37;2.83;;;1.10;;
37785;SDS011;23625;48.784;9.336;2023-04-15T14:22:03;4.15;;;1.10;;
37785;SDS011;23625;48.784;9.336;2023-04-15T14:24:29;3.40;;;1.55;;
37785;SDS011;23625;48.784;9.336;2023-04-15T14:26:55;5.70;;;1.92;;
37785;SDS011;23625;48.784;9.336;2023-04-15T14:29:21;2.63;;;1.13;;
37785;SDS011;23625;48.784;9.336;2023-04-15T14:31:47;2.90;;;1.40;;
37785;SDS011;23625;48.784;9.336;2023-04-15T14:34:14;3.63;;;1.50;;
37785;SDS011;23625;48.784;9.336;2023-04-15T14:36:40;4.95;;;2.00;;
37785;SDS011;23625;48.784;9.336;2023-04-15T14:39:06;4.55;;;1.58;;
37785;SDS011;23625;48.784;9.336;2023-04-15T14:41:32;7.03;;;2.13;;
37785;SDS011;23625;48.784;9.336;2023-04-15T14:43:58;4.68;;;1.70;;
37785;SDS011;23625;48.784;9.336;2023-04-15T14:46:24;5.65;;;2.00;;
37785;SDS011;23625;48.784;9.336;2023-04-15T14:48:50;8.43;;;1.88;;
37785;SDS011;23625;48.784;9.336;2023-04-15T14:51:15;3.58;;;1.73;;
37785;SDS011;23625;48.784;9.336;2023-04-15T14:53:41;6.07;;;2.97;;
37785;SDS011;23625;48.784;9.336;2023-04-15T14:56:07;6.13;;;1.70;;
37785;SDS011;23625;48.784;9.336;2023-04-15T14:58:33;7.30;;;2.13;;
37785;SDS011;23625;48.784;9.336;2023-04-15T15:00:59;8.25;;;2.20;;
37785;SDS011;23625;48.784;9.336;2023-04-15T15:03:26;2.30;;;1.70;;